sensor_id;sensor_type;location;lat;lon;timestamp;P1;durP1;ratioP1;P2;durP2;ratioP2
19509;SDS011;9896;42.486;26.506;2023-10-31T00:01:02;69.43;;;20.97;;
19509;SDS011;9896;42.486;26.506;2023-10-31T00:03:28;69.97;;;21.30;;
19509;SDS011;9896;42.486;26.506;2023-10-31T00:05:53;62.70;;;20.77;;
19509;SDS011;9896;42.486;26.506;2023-10-31T00:08:18;79.60;;;20.83;;
19509;SDS011;9896;42.486;26.506;2023-10-31T00:10:44;60.43;;;20.77;;
19509;SDS011;9896;42.486;26.506;2023-10-31T00:13:10;75.77;;;19.97;;
19509;SDS011;9896;42.486;26.506;2023-10-31T00:15:36;81.80;;;19.50;;
19509;SDS011;9896;42.486;26.506;2023-10-31T00:18:01;150.67;;;22.07;;
19509;SDS011;9896;42.486;26.506;2023-10-31T00:20:27;129.93;;;20.90;;
19509;SDS011;9896;42.486;26.506;2023-10-31T00:22:52;139.10;;;22.97;;
19509;SDS011;9896;42.486;26.506;2023-10-31T00:25:17;250.17;;;24.37;;
19509;SDS011;9896;42.486;26.506;2023-10-31T00:27:43;341.03;;;27.60;;
19509;SDS011;9896;42.486;26.506;2023-10-31T00:30:08;297.50;;;25.53;;
19509;SDS011;9896;42.486;26.506;2023-10-31T00:32:34;211.57;;;21.83;;
19509;SDS011;9896;42.486;26.506;2023-10-31T00:34:59;407.63;;;32.70;;
19509;SDS011;9896;42.486;26.506;2023-10-31T00:37:25;281.80;;;24.57;;
19509;SDS011;9896;42.486;26.506;2023-10-31T00:39:50;265.23;;;23.23;;
19509;SDS011;9896;42.486;26.506;2023-10-31T00:42:15;302.33;;;24.47;;
19509;SDS011;9896;42.486;26.506;2023-10-31T00:44:41;189.07;;;24.77;;
19509;SDS011;9896;42.486;26.506;2023-10-31T00:47:06;294.70;;;23.23;;
19509;SDS011;9896;42.486;26.506;2023-10-31T00:49:32;334.07;;;26.17;;
19509;SDS011;9896;42.486;26.506;2023-10-31T00:51:57;313.77;;;28.60;;
19509;SDS011;9896;42.486;26.506;2023-10-31T00:54:22;289.30;;;26.80;;
19509;SDS011;9896;42.486;26.506;2023-10-31T00:56:48;141.33;;;19.13;;
19509;SDS011;9896;42.486;26.506;2023-10-31T00:59:14;145.30;;;18.23;;
19509;SDS011;9896;42.486;26.506;2023-10-31T01:01:39;3.40;;;1.67;;
19509;SDS011;9896;42.486;26.506;2023-10-31T01:04:04;1.03;;;1.03;;
19509;SDS011;9896;42.486;26.506;2023-10-31T01:06:30;0.77;;;0.77;;
19509;SDS011;9896;42.486;26.506;2023-10-31T01:08:55;4.23;;;2.80;;
19509;SDS011;9896;42.486;26.506;2023-10-31T01:11:20;2.17;;;2.00;;
19509;SDS011;9896;42.486;26.506;2023-10-31T01:13:46;0.40;;;0.40;;
19509;SDS011;9896;42.486;26.506;2023-10-31T01:16:12;1.50;;;0.53;;
19509;SDS011;9896;42.486;26.506;2023-10-31T01:18:37;0.43;;;0.43;;
19509;SDS011;9896;42.486;26.506;2023-10-31T01:21:02;2.00;;;1.13;;
19509;SDS011;9896;42.486;26.506;2023-10-31T01:23:28;2.33;;;2.17;;
19509;SDS011;9896;42.486;26.506;2023-10-31T01:25:53;0.30;;;0.30;;
19509;SDS011;9896;42.486;26.506;2023-10-31T01:28:19;0.63;;;0.63;;
19509;SDS011;9896;42.486;26.506;2023-10-31T01:30:44;0.80;;;0.80;;
19509;SDS011;9896;42.486;26.506;2023-10-31T01:33:10;0.63;;;0.63;;
19509;SDS011;9896;42.486;26.506;2023-10-31T01:35:35;0.93;;;0.50;;
19509;SDS011;9896;42.486;26.506;2023-10-31T01:38:00;0.90;;;0.90;;
19509;SDS011;9896;42.486;26.506;2023-10-31T01:40:26;2.00;;;1.23;;
19509;SDS011;9896;42.486;26.506;2023-10-31T01:42:51;0.70;;;0.70;;
19509;SDS011;9896;42.486;26.506;2023-10-31T01:45:17;0.30;;;0.30;;
19509;SDS011;9896;42.486;26.506;2023-10-31T01:47:42;0.30;;;0.30;;
19509;SDS011;9896;42.486;26.506;2023-10-31T01:50:08;1.90;;;1.43;;
19509;SDS011;9896;42.486;26.506;2023-10-31T01:52:35;0.43;;;0.43;;
19509;SDS011;9896;42.486;26.506;2023-10-31T01:55:02;0.30;;;0.30;;
19509;SDS011;9896;42.486;26.506;2023-10-31T01:57:27;0.43;;;0.43;;
19509;SDS011;9896;42.486;26.506;2023-10-31T01:59:53;5.73;;;1.27;;
19509;SDS011;9896;42.486;26.506;2023-10-31T02:02:18;0.20;;;0.20;;
19509;SDS011;9896;42.486;26.506;2023-10-31T02:04:45;0.50;;;0.50;;
19509;SDS011;9896;42.486;26.506;2023-10-31T02:07:11;0.90;;;0.90;;
19509;SDS011;9896;42.486;26.506;2023-10-31T02:09:36;0.13;;;0.13;;
19509;SDS011;9896;42.486;26.506;2023-10-31T02:12:01;0.43;;;0.43;;
19509;SDS011;9896;42.486;26.506;2023-10-31T02:14:27;0.63;;;0.50;;
19509;SDS011;9896;42.486;26.506;2023-10-31T02:16:52;0.67;;;0.67;;
19509;SDS011;9896;42.486;26.506;2023-10-31T02:19:20;0.70;;;0.70;;
19509;SDS011;9896;42.486;26.506;2023-10-31T02:21:46;0.20;;;0.20;;
19509;SDS011;9896;42.486;26.506;2023-10-31T02:24:11;0.50;;;0.50;;
19509;SDS011;9896;42.486;26.506;2023-10-31T02:26:37;1.27;;;1.17;;
19509;SDS011;9896;42.486;26.506;2023-10-31T02:29:02;0.93;;;0.93;;
19509;SDS011;9896;42.486;26.506;2023-10-31T02:31:28;8.13;;;3.50;;
19509;SDS011;9896;42.486;26.506;2023-10-31T02:33:53;0.60;;;0.60;;
19509;SDS011;9896;42.486;26.506;2023-10-31T02:36:19;0.40;;;0.40;;
19509;SDS011;9896;42.486;26.506;2023-10-31T02:38:45;0.47;;;0.47;;
19509;SDS011;9896;42.486;26.506;2023-10-31T02:41:11;0.90;;;0.90;;
19509;SDS011;9896;42.486;26.506;2023-10-31T02:43:37;0.20;;;0.20;;
19509;SDS011;9896;42.486;26.506;2023-10-31T02:46:04;0.83;;;0.70;;
19509;SDS011;9896;42.486;26.506;2023-10-31T02:48:29;0.60;;;0.60;;
19509;SDS011;9896;42.486;26.506;2023-10-31T02:50:57;1.07;;;1.07;;
19509;SDS011;9896;42.486;26.506;2023-10-31T02:53:23;0.20;;;0.20;;
19509;SDS011;9896;42.486;26.506;2023-10-31T02:55:48;1.07;;;1.07;;
19509;SDS011;9896;42.486;26.506;2023-10-31T02:58:13;2.17;;;1.93;;
19509;SDS011;9896;42.486;26.506;2023-10-31T03:00:39;0.60;;;0.60;;
19509;SDS011;9896;42.486;26.506;2023-10-31T03:03:04;0.77;;;0.77;;
19509;SDS011;9896;42.486;26.506;2023-10-31T03:05:30;0.30;;;0.30;;
19509;SDS011;9896;42.486;26.506;2023-10-31T03:07:55;1.10;;;1.10;;
19509;SDS011;9896;42.486;26.506;2023-10-31T03:10:21;0.30;;;0.30;;
19509;SDS011;9896;42.486;26.506;2023-10-31T03:12:46;0.40;;;0.40;;
19509;SDS011;9896;42.486;26.506;2023-10-31T03:15:12;0.20;;;0.20;;
19509;SDS011;9896;42.486;26.506;2023-10-31T03:17:38;1.00;;;1.00;;
19509;SDS011;9896;42.486;26.506;2023-10-31T03:20:03;0.50;;;0.50;;
19509;SDS011;9896;42.486;26.506;2023-10-31T03:22:29;0.70;;;0.70;;
19509;SDS011;9896;42.486;26.506;2023-10-31T03:24:54;2.23;;;1.57;;
19509;SDS011;9896;42.486;26.506;2023-10-31T03:27:19;0.67;;;0.67;;
19509;SDS011;9896;42.486;26.506;2023-10-31T03:29:45;1.13;;;1.03;;
19509;SDS011;9896;42.486;26.506;2023-10-31T03:32:11;1.37;;;1.27;;
19509;SDS011;9896;42.486;26.506;2023-10-31T03:34:36;0.40;;;0.40;;
19509;SDS011;9896;42.486;26.506;2023-10-31T03:37:02;0.83;;;0.83;;
19509;SDS011;9896;42.486;26.506;2023-10-31T03:39:28;1.03;;;0.93;;
19509;SDS011;9896;42.486;26.506;2023-10-31T03:41:53;0.70;;;0.70;;
19509;SDS011;9896;42.486;26.506;2023-10-31T03:44:19;1.10;;;1.10;;
19509;SDS011;9896;42.486;26.506;2023-10-31T03:46:44;0.63;;;0.63;;
19509;SDS011;9896;42.486;26.506;2023-10-31T03:49:10;0.30;;;0.30;;
19509;SDS011;9896;42.486;26.506;2023-10-31T03:51:35;0.40;;;0.40;;
19509;SDS011;9896;42.486;26.506;2023-10-31T03:54:00;0.50;;;0.50;;
19509;SDS011;9896;42.486;26.506;2023-10-31T03:56:26;1.07;;;1.07;;
19509;SDS011;9896;42.486;26.506;2023-10-31T03:58:51;0.50;;;0.50;;
19509;SDS011;9896;42.486;26.506;2023-10-31T04:01:16;1.03;;;0.90;;
19509;SDS011;9896;42.486;26.506;2023-10-31T04:03:42;0.50;;;0.50;;
19509;SDS011;9896;42.486;26.506;2023-10-31T04:06:07;0.97;;;0.97;;
19509;SDS011;9896;42.486;26.506;2023-10-31T04:08:33;0.60;;;0.60;;
19509;SDS011;9896;42.486;26.506;2023-10-31T04:10:58;1.70;;;1.00;;
19509;SDS011;9896;42.486;26.506;2023-10-31T04:13:24;2.30;;;2.10;;
19509;SDS011;9896;42.486;26.506;2023-10-31T04:15:49;4.63;;;2.00;;
19509;SDS011;9896;42.486;26.506;2023-10-31T04:18:15;1.53;;;1.50;;
19509;SDS011;9896;42.486;26.506;2023-10-31T04:20:40;0.70;;;0.70;;
19509;SDS011;9896;42.486;26.506;2023-10-31T04:23:06;0.50;;;0.50;;
19509;SDS011;9896;42.486;26.506;2023-10-31T04:25:31;1.43;;;1.33;;
19509;SDS011;9896;42.486;26.506;2023-10-31T04:27:57;0.90;;;0.90;;
19509;SDS011;9896;42.486;26.506;2023-10-31T04:30:23;0.50;;;0.50;;
19509;SDS011;9896;42.486;26.506;2023-10-31T04:32:48;3.53;;;2.30;;
19509;SDS011;9896;42.486;26.506;2023-10-31T04:35:14;1.13;;;1.13;;
19509;SDS011;9896;42.486;26.506;2023-10-31T04:37:39;0.50;;;0.50;;
19509;SDS011;9896;42.486;26.506;2023-10-31T04:40:04;1.13;;;1.03;;
19509;SDS011;9896;42.486;26.506;2023-10-31T04:42:31;1.90;;;1.80;;
19509;SDS011;9896;42.486;26.506;2023-10-31T04:44:57;0.60;;;0.60;;
19509;SDS011;9896;42.486;26.506;2023-10-31T04:47:22;1.07;;;1.07;;
19509;SDS011;9896;42.486;26.506;2023-10-31T04:49:48;1.30;;;1.20;;
19509;SDS011;9896;42.486;26.506;2023-10-31T04:52:13;3.40;;;2.83;;
19509;SDS011;9896;42.486;26.506;2023-10-31T04:54:39;0.50;;;0.50;;
19509;SDS011;9896;42.486;26.506;2023-10-31T04:57:05;0.97;;;0.97;;
19509;SDS011;9896;42.486;26.506;2023-10-31T04:59:30;2.27;;;1.03;;
19509;SDS011;9896;42.486;26.506;2023-10-31T05:01:55;0.60;;;0.60;;
19509;SDS011;9896;42.486;26.506;2023-10-31T05:04:21;0.63;;;0.63;;
19509;SDS011;9896;42.486;26.506;2023-10-31T05:06:46;0.30;;;0.30;;
19509;SDS011;9896;42.486;26.506;2023-10-31T05:09:12;0.63;;;0.63;;
19509;SDS011;9896;42.486;26.506;2023-10-31T05:11:38;0.47;;;0.47;;
19509;SDS011;9896;42.486;26.506;2023-10-31T05:14:03;0.40;;;0.40;;
19509;SDS011;9896;42.486;26.506;2023-10-31T05:16:29;0.40;;;0.40;;
19509;SDS011;9896;42.486;26.506;2023-10-31T05:18:55;1.13;;;1.03;;
19509;SDS011;9896;42.486;26.506;2023-10-31T05:21:20;0.90;;;0.90;;
19509;SDS011;9896;42.486;26.506;2023-10-31T05:23:46;1.47;;;1.40;;
19509;SDS011;9896;42.486;26.506;2023-10-31T05:26:11;1.13;;;0.97;;
19509;SDS011;9896;42.486;26.506;2023-10-31T05:28:36;2.17;;;2.07;;
19509;SDS011;9896;42.486;26.506;2023-10-31T05:31:02;0.83;;;0.83;;
19509;SDS011;9896;42.486;26.506;2023-10-31T05:33:28;1.10;;;1.10;;
19509;SDS011;9896;42.486;26.506;2023-10-31T05:35:53;0.40;;;0.40;;
19509;SDS011;9896;42.486;26.506;2023-10-31T05:38:19;0.33;;;0.33;;
19509;SDS011;9896;42.486;26.506;2023-10-31T05:40:44;0.83;;;0.70;;
19509;SDS011;9896;42.486;26.506;2023-10-31T05:43:10;0.67;;;0.67;;
19509;SDS011;9896;42.486;26.506;2023-10-31T05:45:35;0.43;;;0.43;;
19509;SDS011;9896;42.486;26.506;2023-10-31T05:48:01;0.30;;;0.30;;
19509;SDS011;9896;42.486;26.506;2023-10-31T05:50:26;2.03;;;1.90;;
19509;SDS011;9896;42.486;26.506;2023-10-31T05:52:51;5.40;;;2.30;;
19509;SDS011;9896;42.486;26.506;2023-10-31T05:55:17;0.73;;;0.73;;
19509;SDS011;9896;42.486;26.506;2023-10-31T05:57:42;1.40;;;1.37;;
19509;SDS011;9896;42.486;26.506;2023-10-31T06:00:08;11.40;;;3.73;;
19509;SDS011;9896;42.486;26.506;2023-10-31T06:02:33;2.57;;;1.20;;
19509;SDS011;9896;42.486;26.506;2023-10-31T06:04:59;0.53;;;0.53;;
19509;SDS011;9896;42.486;26.506;2023-10-31T06:07:24;2.87;;;0.97;;
19509;SDS011;9896;42.486;26.506;2023-10-31T06:09:50;0.40;;;0.40;;
19509;SDS011;9896;42.486;26.506;2023-10-31T06:12:15;0.70;;;0.70;;
19509;SDS011;9896;42.486;26.506;2023-10-31T06:14:41;1.47;;;1.43;;
19509;SDS011;9896;42.486;26.506;2023-10-31T06:17:06;0.40;;;0.40;;
19509;SDS011;9896;42.486;26.506;2023-10-31T06:19:35;0.50;;;0.50;;
19509;SDS011;9896;42.486;26.506;2023-10-31T06:22:01;1.40;;;1.23;;
19509;SDS011;9896;42.486;26.506;2023-10-31T06:24:26;0.40;;;0.40;;
19509;SDS011;9896;42.486;26.506;2023-10-31T06:26:52;0.47;;;0.47;;
19509;SDS011;9896;42.486;26.506;2023-10-31T06:29:17;1.60;;;1.50;;
19509;SDS011;9896;42.486;26.506;2023-10-31T06:31:43;0.60;;;0.60;;
19509;SDS011;9896;42.486;26.506;2023-10-31T06:34:08;1.23;;;1.23;;
19509;SDS011;9896;42.486;26.506;2023-10-31T06:36:34;0.60;;;0.60;;
19509;SDS011;9896;42.486;26.506;2023-10-31T06:38:59;1.60;;;1.50;;
19509;SDS011;9896;42.486;26.506;2023-10-31T06:41:24;1.13;;;1.13;;
19509;SDS011;9896;42.486;26.506;2023-10-31T06:43:50;1.20;;;1.07;;
19509;SDS011;9896;42.486;26.506;2023-10-31T06:46:15;0.77;;;0.77;;
19509;SDS011;9896;42.486;26.506;2023-10-31T06:48:41;1.07;;;1.07;;
19509;SDS011;9896;42.486;26.506;2023-10-31T06:51:07;0.67;;;0.67;;
19509;SDS011;9896;42.486;26.506;2023-10-31T06:53:32;1.30;;;1.20;;
19509;SDS011;9896;42.486;26.506;2023-10-31T06:55:57;1.33;;;1.23;;
19509;SDS011;9896;42.486;26.506;2023-10-31T06:58:23;1.03;;;1.03;;
19509;SDS011;9896;42.486;26.506;2023-10-31T07:00:48;3.07;;;1.60;;
19509;SDS011;9896;42.486;26.506;2023-10-31T07:03:13;0.50;;;0.50;;
19509;SDS011;9896;42.486;26.506;2023-10-31T07:05:40;0.80;;;0.80;;
19509;SDS011;9896;42.486;26.506;2023-10-31T07:08:06;3.73;;;2.70;;
19509;SDS011;9896;42.486;26.506;2023-10-31T07:10:32;2.07;;;1.93;;
19509;SDS011;9896;42.486;26.506;2023-10-31T07:12:58;1.20;;;1.20;;
19509;SDS011;9896;42.486;26.506;2023-10-31T07:15:24;0.47;;;0.47;;
19509;SDS011;9896;42.486;26.506;2023-10-31T07:17:50;1.63;;;1.53;;
19509;SDS011;9896;42.486;26.506;2023-10-31T07:20:15;2.13;;;2.03;;
19509;SDS011;9896;42.486;26.506;2023-10-31T07:22:41;1.27;;;1.27;;
19509;SDS011;9896;42.486;26.506;2023-10-31T07:25:06;4.13;;;1.50;;
19509;SDS011;9896;42.486;26.506;2023-10-31T07:27:32;7.73;;;2.73;;
19509;SDS011;9896;42.486;26.506;2023-10-31T07:29:57;5.13;;;1.70;;
19509;SDS011;9896;42.486;26.506;2023-10-31T07:32:23;2.53;;;1.73;;
19509;SDS011;9896;42.486;26.506;2023-10-31T07:34:48;0.60;;;0.60;;
19509;SDS011;9896;42.486;26.506;2023-10-31T07:37:14;1.23;;;1.23;;
19509;SDS011;9896;42.486;26.506;2023-10-31T07:39:39;1.63;;;1.53;;
19509;SDS011;9896;42.486;26.506;2023-10-31T07:42:05;3.50;;;1.77;;
19509;SDS011;9896;42.486;26.506;2023-10-31T07:44:31;0.90;;;0.90;;
19509;SDS011;9896;42.486;26.506;2023-10-31T07:46:56;0.90;;;0.90;;
19509;SDS011;9896;42.486;26.506;2023-10-31T07:49:22;2.13;;;2.03;;
19509;SDS011;9896;42.486;26.506;2023-10-31T07:51:47;0.83;;;0.83;;
19509;SDS011;9896;42.486;26.506;2023-10-31T07:54:13;0.77;;;0.77;;
19509;SDS011;9896;42.486;26.506;2023-10-31T07:56:39;2.57;;;1.90;;
19509;SDS011;9896;42.486;26.506;2023-10-31T07:59:05;8.33;;;2.77;;
19509;SDS011;9896;42.486;26.506;2023-10-31T08:01:31;1.90;;;1.03;;
19509;SDS011;9896;42.486;26.506;2023-10-31T08:03:56;10.70;;;7.37;;
19509;SDS011;9896;42.486;26.506;2023-10-31T08:06:21;20.77;;;14.00;;
19509;SDS011;9896;42.486;26.506;2023-10-31T08:08:47;17.00;;;11.60;;
19509;SDS011;9896;42.486;26.506;2023-10-31T08:11:12;17.97;;;10.80;;
19509;SDS011;9896;42.486;26.506;2023-10-31T08:13:38;13.87;;;9.80;;
19509;SDS011;9896;42.486;26.506;2023-10-31T08:16:04;12.40;;;8.33;;
19509;SDS011;9896;42.486;26.506;2023-10-31T08:18:30;12.07;;;8.43;;
19509;SDS011;9896;42.486;26.506;2023-10-31T08:20:56;10.07;;;6.80;;
19509;SDS011;9896;42.486;26.506;2023-10-31T08:23:21;16.03;;;8.60;;
19509;SDS011;9896;42.486;26.506;2023-10-31T08:25:47;13.97;;;8.00;;
19509;SDS011;9896;42.486;26.506;2023-10-31T08:28:12;12.27;;;6.97;;
19509;SDS011;9896;42.486;26.506;2023-10-31T08:30:38;8.40;;;6.70;;
19509;SDS011;9896;42.486;26.506;2023-10-31T08:33:06;15.30;;;7.17;;
19509;SDS011;9896;42.486;26.506;2023-10-31T08:35:31;12.63;;;7.87;;
19509;SDS011;9896;42.486;26.506;2023-10-31T08:37:57;13.53;;;8.57;;
19509;SDS011;9896;42.486;26.506;2023-10-31T08:40:22;11.73;;;8.00;;
19509;SDS011;9896;42.486;26.506;2023-10-31T08:42:48;10.13;;;6.47;;
19509;SDS011;9896;42.486;26.506;2023-10-31T08:45:13;11.70;;;6.90;;
19509;SDS011;9896;42.486;26.506;2023-10-31T08:47:39;10.10;;;6.30;;
19509;SDS011;9896;42.486;26.506;2023-10-31T08:50:04;11.23;;;7.00;;
19509;SDS011;9896;42.486;26.506;2023-10-31T08:52:30;14.13;;;7.77;;
19509;SDS011;9896;42.486;26.506;2023-10-31T08:54:55;10.67;;;6.90;;
19509;SDS011;9896;42.486;26.506;2023-10-31T08:57:21;11.53;;;7.23;;
19509;SDS011;9896;42.486;26.506;2023-10-31T08:59:47;12.17;;;7.10;;
19509;SDS011;9896;42.486;26.506;2023-10-31T09:02:12;16.60;;;7.20;;
19509;SDS011;9896;42.486;26.506;2023-10-31T09:04:38;9.13;;;6.80;;
19509;SDS011;9896;42.486;26.506;2023-10-31T09:07:03;11.83;;;5.80;;
19509;SDS011;9896;42.486;26.506;2023-10-31T09:09:28;8.60;;;5.40;;
19509;SDS011;9896;42.486;26.506;2023-10-31T09:11:54;9.70;;;7.13;;
19509;SDS011;9896;42.486;26.506;2023-10-31T09:14:20;13.20;;;6.10;;
19509;SDS011;9896;42.486;26.506;2023-10-31T09:16:45;11.97;;;6.47;;
19509;SDS011;9896;42.486;26.506;2023-10-31T09:19:10;11.13;;;6.73;;
19509;SDS011;9896;42.486;26.506;2023-10-31T09:21:36;16.17;;;8.33;;
19509;SDS011;9896;42.486;26.506;2023-10-31T09:24:02;10.00;;;7.20;;
19509;SDS011;9896;42.486;26.506;2023-10-31T09:26:27;14.83;;;7.47;;
19509;SDS011;9896;42.486;26.506;2023-10-31T09:28:53;8.50;;;5.40;;
19509;SDS011;9896;42.486;26.506;2023-10-31T09:31:18;15.00;;;6.83;;
19509;SDS011;9896;42.486;26.506;2023-10-31T09:33:44;11.13;;;6.37;;
19509;SDS011;9896;42.486;26.506;2023-10-31T09:36:10;9.10;;;6.90;;
19509;SDS011;9896;42.486;26.506;2023-10-31T09:38:35;11.03;;;6.23;;
19509;SDS011;9896;42.486;26.506;2023-10-31T09:41:01;9.37;;;5.83;;
19509;SDS011;9896;42.486;26.506;2023-10-31T09:43:26;10.27;;;6.17;;
19509;SDS011;9896;42.486;26.506;2023-10-31T09:45:53;9.93;;;6.23;;
19509;SDS011;9896;42.486;26.506;2023-10-31T09:48:19;8.87;;;6.07;;
19509;SDS011;9896;42.486;26.506;2023-10-31T09:50:45;13.03;;;6.67;;
19509;SDS011;9896;42.486;26.506;2023-10-31T09:53:11;10.97;;;5.90;;
19509;SDS011;9896;42.486;26.506;2023-10-31T09:55:37;8.10;;;6.13;;
19509;SDS011;9896;42.486;26.506;2023-10-31T09:58:03;12.80;;;6.23;;
19509;SDS011;9896;42.486;26.506;2023-10-31T10:00:29;8.83;;;5.20;;
19509;SDS011;9896;42.486;26.506;2023-10-31T10:02:54;14.83;;;5.83;;
19509;SDS011;9896;42.486;26.506;2023-10-31T10:05:20;14.80;;;6.57;;
19509;SDS011;9896;42.486;26.506;2023-10-31T10:07:46;8.10;;;5.73;;
19509;SDS011;9896;42.486;26.506;2023-10-31T10:10:11;9.50;;;5.10;;
19509;SDS011;9896;42.486;26.506;2023-10-31T10:12:37;7.20;;;5.07;;
19509;SDS011;9896;42.486;26.506;2023-10-31T10:15:02;9.87;;;4.50;;
19509;SDS011;9896;42.486;26.506;2023-10-31T10:17:28;6.77;;;4.73;;
19509;SDS011;9896;42.486;26.506;2023-10-31T10:20:10;8.93;;;5.47;;
19509;SDS011;9896;42.486;26.506;2023-10-31T10:22:44;9.47;;;5.40;;
19509;SDS011;9896;42.486;26.506;2023-10-31T10:25:10;10.60;;;5.53;;
19509;SDS011;9896;42.486;26.506;2023-10-31T10:27:37;12.13;;;8.50;;
19509;SDS011;9896;42.486;26.506;2023-10-31T10:30:03;10.07;;;5.33;;
19509;SDS011;9896;42.486;26.506;2023-10-31T10:32:29;9.00;;;5.40;;
19509;SDS011;9896;42.486;26.506;2023-10-31T10:34:54;7.03;;;4.70;;
19509;SDS011;9896;42.486;26.506;2023-10-31T10:37:20;7.93;;;5.07;;
19509;SDS011;9896;42.486;26.506;2023-10-31T10:39:48;10.13;;;5.10;;
19509;SDS011;9896;42.486;26.506;2023-10-31T10:42:18;10.03;;;4.63;;
19509;SDS011;9896;42.486;26.506;2023-10-31T10:44:45;7.73;;;4.40;;
19509;SDS011;9896;42.486;26.506;2023-10-31T10:47:13;7.10;;;4.83;;
19509;SDS011;9896;42.486;26.506;2023-10-31T10:49:39;8.23;;;4.10;;
19509;SDS011;9896;42.486;26.506;2023-10-31T10:54:37;10.23;;;4.83;;
19509;SDS011;9896;42.486;26.506;2023-10-31T11:00:02;6.43;;;4.67;;
19509;SDS011;9896;42.486;26.506;2023-10-31T11:02:29;6.67;;;4.47;;
19509;SDS011;9896;42.486;26.506;2023-10-31T11:04:55;9.87;;;5.20;;
19509;SDS011;9896;42.486;26.506;2023-10-31T11:07:22;8.93;;;4.73;;
19509;SDS011;9896;42.486;26.506;2023-10-31T11:09:49;8.30;;;4.40;;
19509;SDS011;9896;42.486;26.506;2023-10-31T11:12:15;10.13;;;4.30;;
19509;SDS011;9896;42.486;26.506;2023-10-31T11:14:41;9.07;;;4.97;;
19509;SDS011;9896;42.486;26.506;2023-10-31T11:17:11;9.93;;;4.57;;
19509;SDS011;9896;42.486;26.506;2023-10-31T11:19:39;9.23;;;4.73;;
19509;SDS011;9896;42.486;26.506;2023-10-31T11:22:05;9.77;;;5.00;;
19509;SDS011;9896;42.486;26.506;2023-10-31T11:24:31;8.57;;;5.28;;
19509;SDS011;9896;42.486;26.506;2023-10-31T11:27:00;8.40;;;4.63;;
19509;SDS011;9896;42.486;26.506;2023-10-31T11:29:26;10.98;;;5.22;;
19509;SDS011;9896;42.486;26.506;2023-10-31T11:31:51;10.23;;;5.50;;
19509;SDS011;9896;42.486;26.506;2023-10-31T11:34:17;7.57;;;4.43;;
19509;SDS011;9896;42.486;26.506;2023-10-31T11:36:44;8.33;;;5.13;;
19509;SDS011;9896;42.486;26.506;2023-10-31T11:39:13;11.32;;;5.35;;
19509;SDS011;9896;42.486;26.506;2023-10-31T11:41:39;10.55;;;5.32;;
19509;SDS011;9896;42.486;26.506;2023-10-31T11:44:05;10.20;;;5.38;;
19509;SDS011;9896;42.486;26.506;2023-10-31T11:46:31;9.00;;;5.18;;
19509;SDS011;9896;42.486;26.506;2023-10-31T11:48:56;8.35;;;4.88;;
19509;SDS011;9896;42.486;26.506;2023-10-31T11:51:23;10.95;;;5.40;;
19509;SDS011;9896;42.486;26.506;2023-10-31T11:53:49;6.85;;;4.22;;
19509;SDS011;9896;42.486;26.506;2023-10-31T11:56:15;8.25;;;4.95;;
19509;SDS011;9896;42.486;26.506;2023-10-31T11:58:40;7.78;;;4.93;;
19509;SDS011;9896;42.486;26.506;2023-10-31T12:01:09;9.90;;;4.47;;
19509;SDS011;9896;42.486;26.506;2023-10-31T12:03:39;10.13;;;4.13;;
19509;SDS011;9896;42.486;26.506;2023-10-31T12:06:05;9.13;;;4.85;;
19509;SDS011;9896;42.486;26.506;2023-10-31T12:08:32;8.60;;;5.00;;
19509;SDS011;9896;42.486;26.506;2023-10-31T12:11:05;8.07;;;5.55;;
19509;SDS011;9896;42.486;26.506;2023-10-31T12:13:30;11.52;;;5.13;;
19509;SDS011;9896;42.486;26.506;2023-10-31T12:15:56;11.80;;;5.50;;
19509;SDS011;9896;42.486;26.506;2023-10-31T12:18:21;9.20;;;5.07;;
19509;SDS011;9896;42.486;26.506;2023-10-31T12:20:50;10.43;;;5.53;;
19509;SDS011;9896;42.486;26.506;2023-10-31T12:23:17;13.50;;;6.38;;
19509;SDS011;9896;42.486;26.506;2023-10-31T12:25:46;13.60;;;6.07;;
19509;SDS011;9896;42.486;26.506;2023-10-31T12:28:16;13.20;;;6.00;;
19509;SDS011;9896;42.486;26.506;2023-10-31T12:30:44;10.07;;;6.43;;
19509;SDS011;9896;42.486;26.506;2023-10-31T12:33:11;10.15;;;6.60;;
19509;SDS011;9896;42.486;26.506;2023-10-31T12:35:36;12.48;;;5.65;;
19509;SDS011;9896;42.486;26.506;2023-10-31T12:38:01;12.75;;;5.78;;
19509;SDS011;9896;42.486;26.506;2023-10-31T12:40:27;9.05;;;4.20;;
19509;SDS011;9896;42.486;26.506;2023-10-31T12:42:52;8.98;;;5.07;;
19509;SDS011;9896;42.486;26.506;2023-10-31T12:45:18;13.13;;;5.13;;
19509;SDS011;9896;42.486;26.506;2023-10-31T12:47:44;8.73;;;4.82;;
19509;SDS011;9896;42.486;26.506;2023-10-31T12:50:11;9.30;;;5.30;;
19509;SDS011;9896;42.486;26.506;2023-10-31T12:55:12;11.57;;;5.40;;
19509;SDS011;9896;42.486;26.506;2023-10-31T12:57:38;9.02;;;4.45;;
19509;SDS011;9896;42.486;26.506;2023-10-31T13:00:03;11.60;;;4.57;;
19509;SDS011;9896;42.486;26.506;2023-10-31T13:02:29;6.13;;;4.40;;
19509;SDS011;9896;42.486;26.506;2023-10-31T13:04:59;7.88;;;4.40;;
19509;SDS011;9896;42.486;26.506;2023-10-31T13:07:32;10.07;;;4.35;;
19509;SDS011;9896;42.486;26.506;2023-10-31T13:09:59;8.27;;;3.75;;
19509;SDS011;9896;42.486;26.506;2023-10-31T13:12:24;8.57;;;3.08;;
19509;SDS011;9896;42.486;26.506;2023-10-31T13:14:52;7.25;;;3.25;;
19509;SDS011;9896;42.486;26.506;2023-10-31T13:17:17;7.50;;;4.10;;
19509;SDS011;9896;42.486;26.506;2023-10-31T13:19:43;8.48;;;3.55;;
19509;SDS011;9896;42.486;26.506;2023-10-31T13:22:08;7.88;;;3.67;;
19509;SDS011;9896;42.486;26.506;2023-10-31T13:24:34;8.40;;;4.00;;
19509;SDS011;9896;42.486;26.506;2023-10-31T13:26:59;7.85;;;3.90;;
19509;SDS011;9896;42.486;26.506;2023-10-31T13:29:27;11.48;;;4.20;;
19509;SDS011;9896;42.486;26.506;2023-10-31T13:31:53;8.23;;;3.95;;
19509;SDS011;9896;42.486;26.506;2023-10-31T13:34:18;8.60;;;3.85;;
19509;SDS011;9896;42.486;26.506;2023-10-31T13:36:44;9.68;;;4.28;;
19509;SDS011;9896;42.486;26.506;2023-10-31T13:39:09;8.20;;;3.95;;
19509;SDS011;9896;42.486;26.506;2023-10-31T13:41:35;9.40;;;4.05;;
19509;SDS011;9896;42.486;26.506;2023-10-31T13:44:00;9.68;;;4.20;;
19509;SDS011;9896;42.486;26.506;2023-10-31T13:46:28;16.30;;;4.38;;
19509;SDS011;9896;42.486;26.506;2023-10-31T13:48:54;9.35;;;4.30;;
19509;SDS011;9896;42.486;26.506;2023-10-31T13:51:19;8.55;;;4.57;;
19509;SDS011;9896;42.486;26.506;2023-10-31T13:53:45;7.32;;;3.08;;
19509;SDS011;9896;42.486;26.506;2023-10-31T13:56:10;9.45;;;4.28;;
19509;SDS011;9896;42.486;26.506;2023-10-31T13:58:35;8.73;;;4.18;;
19509;SDS011;9896;42.486;26.506;2023-10-31T14:01:01;9.50;;;4.60;;
19509;SDS011;9896;42.486;26.506;2023-10-31T14:03:26;10.18;;;3.03;;
19509;SDS011;9896;42.486;26.506;2023-10-31T14:05:51;10.90;;;5.00;;
19509;SDS011;9896;42.486;26.506;2023-10-31T14:08:17;12.50;;;5.32;;
19509;SDS011;9896;42.486;26.506;2023-10-31T14:10:42;11.45;;;4.70;;
19509;SDS011;9896;42.486;26.506;2023-10-31T14:13:11;11.35;;;5.78;;
19509;SDS011;9896;42.486;26.506;2023-10-31T14:15:36;17.13;;;7.57;;
19509;SDS011;9896;42.486;26.506;2023-10-31T14:18:01;15.43;;;7.07;;
19509;SDS011;9896;42.486;26.506;2023-10-31T14:20:28;17.27;;;8.98;;
19509;SDS011;9896;42.486;26.506;2023-10-31T14:22:54;23.00;;;10.10;;
19509;SDS011;9896;42.486;26.506;2023-10-31T14:25:19;21.83;;;11.00;;
19509;SDS011;9896;42.486;26.506;2023-10-31T14:27:44;23.88;;;13.20;;
19509;SDS011;9896;42.486;26.506;2023-10-31T14:30:10;24.40;;;11.65;;
19509;SDS011;9896;42.486;26.506;2023-10-31T14:32:36;26.63;;;12.68;;
19509;SDS011;9896;42.486;26.506;2023-10-31T14:35:01;26.70;;;13.17;;
19509;SDS011;9896;42.486;26.506;2023-10-31T14:37:27;27.00;;;12.55;;
19509;SDS011;9896;42.486;26.506;2023-10-31T14:39:53;26.13;;;14.43;;